Time;durP1;ratioP1;P1;durP2;ratioP2;P2;SDS_P1;SDS_P2;PMS_P1;PMS_P2;Temp;Humidity;BMP_temperature;BMP_pressure;BME280_temperature;BME280_humidity;BME280_pressure;Samples;Min_cycle;Max_cycle;Signal;HPM_P1;HPM_P2
2023/01/11 00:00:12;;;;;;;15.07;8.20;;;;;;;;;;4935028;28;94870;-67
2023/01/11 00:02:38;;;;;;;18.58;8.63;;;;;;;;;;4936206;28;93392;-67
2023/01/11 00:05:05;;;;;;;14.32;8.63;;;;;;;;;;4936052;28;92477;-67
2023/01/11 00:07:31;;;;;;;12.05;7.90;;;;;;;;;;4937201;28;94282;-67
2023/01/11 00:09:57;;;;;;;13.98;7.93;;;;;;;;;;4937435;28;94006;-67
2023/01/11 00:12:24;;;;;;;13.88;8.73;;;;;;;;;;4935924;28;93465;-67
2023/01/11 00:14:50;;;;;;;18.50;8.30;;;;;;;;;;4936751;28;93587;-67
2023/01/11 00:17:16;;;;;;;12.35;8.00;;;;;;;;;;4935795;28;91801;-67
2023/01/11 00:19:43;;;;;;;12.02;7.38;;;;;;;;;;4935472;28;92555;-67
2023/01/11 00:22:09;;;;;;;15.48;7.10;;;;;;;;;;4934154;28;93729;-67
2023/01/11 00:24:35;;;;;;;16.15;8.20;;;;;;;;;;4933497;28;94991;-67
2023/01/11 00:27:01;;;;;;;15.18;7.65;;;;;;;;;;4935838;28;96548;-67
2023/01/11 00:29:28;;;;;;;19.27;6.55;;;;;;;;;;4936034;28;93476;-67
2023/01/11 00:31:54;;;;;;;14.45;7.50;;;;;;;;;;4938578;28;92868;-67
2023/01/11 00:34:20;;;;;;;14.52;7.57;;;;;;;;;;4934984;28;94356;-67
2023/01/11 00:36:47;;;;;;;13.63;6.82;;;;;;;;;;4934890;28;93923;-67
2023/01/11 00:39:13;;;;;;;19.08;7.93;;;;;;;;;;4936932;28;92418;-67
2023/01/11 00:49:58;;;;;;;16.55;7.40;;;;;;;;;;4934041;28;95872;-68
2023/01/11 00:52:24;;;;;;;13.98;7.03;;;;;;;;;;4935346;28;92996;-67
2023/01/11 00:54:50;;;;;;;16.08;7.15;;;;;;;;;;4938982;28;93626;-67
2023/01/11 00:57:17;;;;;;;11.70;7.10;;;;;;;;;;4934228;28;92505;-67
2023/01/11 00:59:43;;;;;;;20.92;7.60;;;;;;;;;;4931380;28;93445;-67
2023/01/11 01:02:10;;;;;;;16.75;7.28;;;;;;;;;;4936399;28;93741;-68
2023/01/11 01:04:36;;;;;;;17.10;7.80;;;;;;;;;;4934794;28;92586;-67
2023/01/11 01:07:03;;;;;;;15.40;6.90;;;;;;;;;;4925566;28;93226;-68
2023/01/11 01:09:29;;;;;;;16.10;7.70;;;;;;;;;;4934906;28;93728;-68
2023/01/11 01:11:56;;;;;;;16.60;7.63;;;;;;;;;;4934592;28;92910;-68
2023/01/11 01:14:27;;;;;;;11.60;6.57;;;;;;;;;;4934194;28;94791;-67
2023/01/11 01:16:54;;;;;;;10.20;5.07;;;;;;;;;;4936919;28;93688;-68
2023/01/11 01:19:21;;;;;;;10.90;6.38;;;;;;;;;;4933467;28;94268;-67
2023/01/11 01:21:48;;;;;;;15.73;6.88;;;;;;;;;;4941445;28;93913;-67
2023/01/11 01:24:15;;;;;;;13.60;7.05;;;;;;;;;;4937145;28;92499;-67
2023/01/11 01:26:41;;;;;;;15.20;5.93;;;;;;;;;;4934989;28;92667;-68
2023/01/11 01:29:07;;;;;;;12.55;6.47;;;;;;;;;;4934908;28;93513;-68
2023/01/11 01:31:33;;;;;;;14.68;5.60;;;;;;;;;;4936186;28;91669;-68
2023/01/11 01:34:00;;;;;;;8.57;4.10;;;;;;;;;;4934967;28;92467;-68
2023/01/11 01:36:26;;;;;;;11.13;5.20;;;;;;;;;;4937926;28;94088;-68
2023/01/11 01:38:53;;;;;;;10.82;5.40;;;;;;;;;;4933607;28;94761;-67
2023/01/11 01:41:19;;;;;;;7.53;5.00;;;;;;;;;;4935057;28;93657;-68
2023/01/11 01:43:48;;;;;;;11.57;5.32;;;;;;;;;;4932809;28;92572;-68
2023/01/11 01:46:15;;;;;;;5.78;4.63;;;;;;;;;;4934822;28;93115;-67
2023/01/11 01:48:43;;;;;;;9.13;4.57;;;;;;;;;;4933288;28;93252;-68
2023/01/11 01:51:10;;;;;;;9.65;5.15;;;;;;;;;;4936375;28;93681;-68
2023/01/11 01:53:39;;;;;;;6.68;4.55;;;;;;;;;;4933603;28;94262;-68
2023/01/11 01:56:08;;;;;;;9.73;4.80;;;;;;;;;;4933436;28;92741;-68
2023/01/11 01:58:38;;;;;;;6.13;4.18;;;;;;;;;;4938035;28;93260;-68
2023/01/11 02:03:51;;;;;;;8.48;4.50;;;;;;;;;;4935069;28;94891;-68
2023/01/11 02:06:19;;;;;;;7.18;4.78;;;;;;;;;;4935954;28;95509;-68
2023/01/11 02:08:48;;;;;;;9.00;4.90;;;;;;;;;;4932215;28;93827;-67
2023/01/11 02:11:30;;;;;;;7.90;4.75;;;;;;;;;;4933346;28;92431;-67
2023/01/11 02:14:01;;;;;;;9.25;3.95;;;;;;;;;;4948711;28;93255;-68
2023/01/11 02:16:28;;;;;;;7.88;4.35;;;;;;;;;;4929208;28;93455;-67
2023/01/11 02:18:55;;;;;;;5.78;3.83;;;;;;;;;;4933823;28;92603;-68
2023/01/11 02:21:47;;;;;;;4.25;3.85;;;;;;;;;;4941131;28;94466;-68
2023/01/11 02:24:13;;;;;;;5.75;3.97;;;;;;;;;;4943887;28;92659;-68
2023/01/11 02:27:00;;;;;;;3.88;3.22;;;;;;;;;;4940246;28;93170;-67
2023/01/11 02:29:38;;;;;;;12.70;4.40;;;;;;;;;;4942599;28;95900;-68
2023/01/11 02:32:11;;;;;;;9.15;4.65;;;;;;;;;;4929232;28;94045;-68
2023/01/11 02:34:40;;;;;;;4.10;3.53;;;;;;;;;;4938499;28;93190;-68
2023/01/11 02:37:25;;;;;;;8.23;4.00;;;;;;;;;;4929860;28;93432;-68
2023/01/11 02:40:10;;;;;;;9.65;4.30;;;;;;;;;;4943738;28;92449;-68
2023/01/11 02:45:34;;;;;;;9.55;4.70;;;;;;;;;;4940961;28;93766;-68
2023/01/11 02:48:03;;;;;;;7.18;4.78;;;;;;;;;;4933576;28;93143;-68
2023/01/11 02:50:44;;;;;;;6.25;4.72;;;;;;;;;;4936602;28;93419;-68
2023/01/11 02:53:19;;;;;;;8.52;4.72;;;;;;;;;;4943198;28;92481;-68
2023/01/11 02:55:47;;;;;;;7.22;4.45;;;;;;;;;;4933375;28;94809;-68
2023/01/11 02:58:14;;;;;;;7.18;4.43;;;;;;;;;;4936742;28;93444;-68
2023/01/11 03:00:41;;;;;;;5.20;4.72;;;;;;;;;;4936621;28;92523;-67
2023/01/11 03:03:12;;;;;;;5.68;4.35;;;;;;;;;;4942718;28;93504;-68
2023/01/11 03:05:47;;;;;;;10.45;5.10;;;;;;;;;;4940539;28;93208;-68
2023/01/11 03:08:23;;;;;;;6.22;5.05;;;;;;;;;;4943994;28;92423;-68
2023/01/11 03:11:01;;;;;;;8.95;5.30;;;;;;;;;;4942680;28;93456;-67
2023/01/11 03:13:44;;;;;;;6.10;5.18;;;;;;;;;;4946799;28;91703;-68
2023/01/11 03:16:19;;;;;;;8.32;6.05;;;;;;;;;;4945324;28;92660;-68
2023/01/11 03:18:52;;;;;;;9.02;5.65;;;;;;;;;;4937896;28;93503;-68
2023/01/11 03:21:37;;;;;;;6.65;5.28;;;;;;;;;;4939299;28;94902;-68
2023/01/11 03:24:19;;;;;;;6.88;5.50;;;;;;;;;;4948061;28;95489;-68
2023/01/11 03:27:03;;;;;;;5.72;5.07;;;;;;;;;;4938201;28;93538;-68
2023/01/11 03:29:29;;;;;;;6.82;5.30;;;;;;;;;;4942385;28;94789;-68
2023/01/11 03:31:55;;;;;;;6.30;4.90;;;;;;;;;;4943865;28;93269;-68
2023/01/11 03:34:28;;;;;;;8.07;5.25;;;;;;;;;;4937009;28;93514;-68
2023/01/11 03:37:00;;;;;;;6.70;4.97;;;;;;;;;;4940339;28;92582;-68
2023/01/11 03:39:30;;;;;;;5.85;3.80;;;;;;;;;;4943929;28;92144;-68
2023/01/11 03:41:58;;;;;;;7.10;4.00;;;;;;;;;;4940639;28;94167;-68
2023/01/11 03:44:27;;;;;;;2.78;2.35;;;;;;;;;;4947475;28;93433;-68
2023/01/11 03:46:56;;;;;;;2.60;2.25;;;;;;;;;;4934462;28;96144;-68
2023/01/11 03:49:31;;;;;;;2.92;2.72;;;;;;;;;;4938963;28;92457;-68
2023/01/11 03:51:59;;;;;;;2.72;2.53;;;;;;;;;;4941176;28;93120;-68
2023/01/11 03:54:27;;;;;;;5.43;3.80;;;;;;;;;;4938879;28;92535;-67
2023/01/11 03:57:11;;;;;;;3.42;3.10;;;;;;;;;;4936714;28;93175;-68
2023/01/11 03:59:38;;;;;;;3.45;3.13;;;;;;;;;;4935001;28;93753;-68
2023/01/11 04:02:13;;;;;;;5.25;3.63;;;;;;;;;;4931559;28;92695;-68
2023/01/11 04:04:39;;;;;;;6.93;4.22;;;;;;;;;;4936331;28;93205;-68
2023/01/11 04:07:05;;;;;;;13.07;3.42;;;;;;;;;;4936001;28;95141;-68
2023/01/11 04:09:31;;;;;;;6.50;3.90;;;;;;;;;;4936706;28;92624;-68
2023/01/11 04:11:58;;;;;;;5.32;3.40;;;;;;;;;;4936444;28;94905;-68
2023/01/11 04:14:24;;;;;;;4.38;3.40;;;;;;;;;;4942771;28;93601;-68
2023/01/11 04:16:50;;;;;;;5.32;3.95;;;;;;;;;;4942409;28;93248;-67
2023/01/11 04:19:16;;;;;;;6.13;4.15;;;;;;;;;;4942270;28;96024;-67
2023/01/11 04:21:43;;;;;;;11.18;4.50;;;;;;;;;;4948113;28;92628;-68
2023/01/11 04:24:09;;;;;;;8.18;5.30;;;;;;;;;;4933257;28;94047;-67
2023/01/11 04:26:35;;;;;;;11.38;5.38;;;;;;;;;;4942094;28;93442;-68
2023/01/11 04:29:02;;;;;;;7.80;5.47;;;;;;;;;;4947399;28;91784;-68
2023/01/11 04:31:28;;;;;;;10.07;5.70;;;;;;;;;;4934746;28;92572;-68
2023/01/11 04:33:54;;;;;;;12.43;5.70;;;;;;;;;;4939556;28;95003;-68
2023/01/11 04:36:21;;;;;;;6.65;5.03;;;;;;;;;;4934002;28;94872;-68
2023/01/11 04:38:47;;;;;;;13.10;5.85;;;;;;;;;;4945183;28;93966;-68
2023/01/11 04:43:58;;;;;;;10.40;5.35;;;;;;;;;;4948275;28;93681;-68
2023/01/11 04:46:24;;;;;;;13.57;6.63;;;;;;;;;;4934678;28;92563;-68
2023/01/11 04:48:51;;;;;;;15.52;6.40;;;;;;;;;;4938887;28;92727;-68
2023/01/11 04:51:17;;;;;;;17.98;6.00;;;;;;;;;;4930038;28;94198;-68
2023/01/11 04:53:45;;;;;;;14.55;5.65;;;;;;;;;;4949303;28;92686;-68
2023/01/11 04:56:12;;;;;;;14.35;5.97;;;;;;;;;;4942520;28;92534;-68
2023/01/11 04:58:38;;;;;;;12.90;5.47;;;;;;;;;;4928595;28;93215;-68
2023/01/11 05:01:11;;;;;;;12.77;5.30;;;;;;;;;;4948811;28;94885;-68
2023/01/11 05:03:37;;;;;;;13.40;5.38;;;;;;;;;;4935900;28;95631;-68
2023/01/11 05:06:04;;;;;;;21.35;5.60;;;;;;;;;;4939666;28;93698;-68
2023/01/11 05:08:31;;;;;;;14.23;4.95;;;;;;;;;;4936097;28;92501;-68
2023/01/11 05:11:01;;;;;;;18.48;4.53;;;;;;;;;;4941899;28;93173;-68
2023/01/11 05:13:42;;;;;;;15.80;4.25;;;;;;;;;;4937711;28;93846;-68
2023/01/11 05:16:12;;;;;;;21.00;4.95;;;;;;;;;;4934241;28;92511;-67
2023/01/11 05:18:42;;;;;;;18.65;3.83;;;;;;;;;;4946105;28;94241;-67
2023/01/11 05:21:09;;;;;;;19.80;5.05;;;;;;;;;;4939179;28;93532;-68
2023/01/11 05:23:36;;;;;;;24.48;5.43;;;;;;;;;;4950971;28;93148;-67
2023/01/11 05:26:06;;;;;;;17.00;4.15;;;;;;;;;;4932046;28;95827;-68
2023/01/11 05:28:32;;;;;;;16.98;3.70;;;;;;;;;;4939735;28;92751;-68
2023/01/11 05:30:59;;;;;;;21.23;4.22;;;;;;;;;;4940058;28;93114;-68
2023/01/11 05:33:25;;;;;;;17.27;3.47;;;;;;;;;;4944067;28;95376;-68
2023/01/11 05:36:01;;;;;;;25.05;4.18;;;;;;;;;;4936539;28;92548;-68
2023/01/11 05:38:28;;;;;;;26.02;4.32;;;;;;;;;;4934433;28;93269;-68
2023/01/11 05:40:58;;;;;;;24.08;3.90;;;;;;;;;;4937616;28;93687;-68
2023/01/11 05:43:24;;;;;;;26.25;4.13;;;;;;;;;;4952164;28;92291;-67
2023/01/11 05:45:51;;;;;;;29.48;3.75;;;;;;;;;;4935285;28;94497;-68
2023/01/11 05:48:17;;;;;;;22.23;3.40;;;;;;;;;;4935752;28;92818;-68
2023/01/11 05:50:48;;;;;;;23.13;3.30;;;;;;;;;;4932266;28;94930;-68
2023/01/11 05:53:14;;;;;;;33.90;4.22;;;;;;;;;;4932702;28;94797;-68
2023/01/11 05:55:50;;;;;;;27.23;4.03;;;;;;;;;;4939379;28;92543;-68
2023/01/11 05:58:16;;;;;;;25.98;4.32;;;;;;;;;;4934496;28;94602;-68
2023/01/11 06:00:43;;;;;;;23.48;3.40;;;;;;;;;;4934073;28;93648;-68
2023/01/11 06:03:09;;;;;;;19.38;3.45;;;;;;;;;;4935650;28;92691;-69
2023/01/11 06:05:37;;;;;;;23.02;4.03;;;;;;;;;;4931182;28;93660;-74
2023/01/11 06:08:03;;;;;;;32.15;4.25;;;;;;;;;;4918859;28;91735;-68
2023/01/11 06:10:30;;;;;;;27.05;3.92;;;;;;;;;;4934737;28;92461;-68
2023/01/11 06:13:25;;;;;;;27.20;4.60;;;;;;;;;;4934263;28;93472;-68
2023/01/11 06:15:42;;;;;;;26.98;4.35;;;;;;;;;;4931051;28;94937;-68
2023/01/11 06:18:09;;;;;;;37.45;4.28;;;;;;;;;;4934581;28;95845;-68
2023/01/11 06:20:35;;;;;;;23.15;3.65;;;;;;;;;;4941201;28;94665;-67
2023/01/11 06:23:01;;;;;;;31.17;3.80;;;;;;;;;;4934715;28;92536;-68
2023/01/11 06:25:29;;;;;;;25.48;3.53;;;;;;;;;;4943045;28;93410;-68
2023/01/11 06:27:56;;;;;;;20.17;3.33;;;;;;;;;;4941132;28;92604;-68
2023/01/11 06:30:24;;;;;;;19.65;3.38;;;;;;;;;;4936299;28;93253;-68
2023/01/11 06:32:51;;;;;;;35.30;5.07;;;;;;;;;;4936065;28;91753;-68
2023/01/11 06:35:17;;;;;;;33.35;4.50;;;;;;;;;;4934494;28;92550;-68
2023/01/11 06:37:44;;;;;;;26.67;3.78;;;;;;;;;;4933384;28;93880;-68
2023/01/11 06:40:10;;;;;;;25.55;3.53;;;;;;;;;;4932119;28;96097;-68
2023/01/11 06:42:37;;;;;;;22.67;3.45;;;;;;;;;;4932789;28;93892;-68
2023/01/11 06:45:03;;;;;;;23.35;4.32;;;;;;;;;;4935553;28;93782;-67
2023/01/11 06:47:30;;;;;;;23.85;3.70;;;;;;;;;;4939024;28;93502;-67
2023/01/11 06:49:56;;;;;;;27.13;3.85;;;;;;;;;;4933516;28;93556;-68
2023/01/11 06:52:23;;;;;;;28.55;3.80;;;;;;;;;;4932232;28;94462;-68
2023/01/11 06:54:49;;;;;;;28.65;3.25;;;;;;;;;;4933323;28;92784;-67
2023/01/11 06:57:15;;;;;;;28.92;4.38;;;;;;;;;;4943292;28;91942;-68
2023/01/11 06:59:42;;;;;;;21.75;3.10;;;;;;;;;;4935239;28;93036;-67
2023/01/11 07:02:09;;;;;;;33.75;4.25;;;;;;;;;;4930673;28;92547;-68
2023/01/11 07:04:35;;;;;;;22.17;3.60;;;;;;;;;;4938517;28;95513;-68
2023/01/11 07:07:01;;;;;;;20.95;3.15;;;;;;;;;;4941666;28;94608;-68
2023/01/11 07:09:28;;;;;;;22.55;3.75;;;;;;;;;;4941249;28;92506;-67
2023/01/11 07:11:54;;;;;;;24.75;3.55;;;;;;;;;;4936892;28;93592;-68
2023/01/11 07:14:20;;;;;;;35.63;4.88;;;;;;;;;;4934479;28;92495;-67
2023/01/11 07:16:47;;;;;;;20.67;3.22;;;;;;;;;;4931924;28;93757;-67
2023/01/11 07:19:13;;;;;;;24.20;3.75;;;;;;;;;;4939140;28;93983;-68
2023/01/11 07:21:39;;;;;;;24.73;3.75;;;;;;;;;;4938644;28;92182;-68
2023/01/11 07:24:06;;;;;;;29.20;3.92;;;;;;;;;;4956002;28;92412;-68
2023/01/11 07:26:32;;;;;;;27.13;4.18;;;;;;;;;;4945212;28;93349;-68
2023/01/11 07:28:58;;;;;;;22.85;4.15;;;;;;;;;;4950085;28;95181;-67
2023/01/11 07:31:25;;;;;;;21.48;3.05;;;;;;;;;;4938643;28;96756;-68
2023/01/11 07:33:51;;;;;;;23.33;3.85;;;;;;;;;;4934632;28;92607;-68
2023/01/11 07:36:17;;;;;;;27.25;4.82;;;;;;;;;;4936124;28;93222;-68
2023/01/11 07:38:45;;;;;;;21.17;2.97;;;;;;;;;;4937913;28;94041;-67
2023/01/11 07:43:56;;;;;;;34.70;3.67;;;;;;;;;;4942268;28;93450;-68
2023/01/11 07:46:22;;;;;;;36.47;3.85;;;;;;;;;;4940840;28;92758;-68
2023/01/11 07:48:49;;;;;;;23.95;3.83;;;;;;;;;;4948251;28;92601;-67
2023/01/11 07:51:19;;;;;;;21.23;3.85;;;;;;;;;;4940774;28;93184;-68
2023/01/11 07:53:45;;;;;;;23.05;3.70;;;;;;;;;;4930946;28;96224;-67
2023/01/11 07:56:12;;;;;;;25.27;3.70;;;;;;;;;;4936519;28;95631;-67
2023/01/11 07:58:38;;;;;;;35.03;3.88;;;;;;;;;;4934735;28;93702;-66
2023/01/11 08:01:04;;;;;;;34.65;4.07;;;;;;;;;;4937053;28;92392;-67
2023/01/11 08:03:31;;;;;;;26.92;3.42;;;;;;;;;;4935698;28;94181;-67
2023/01/11 08:05:57;;;;;;;22.20;3.40;;;;;;;;;;4935347;28;94155;-68
2023/01/11 08:08:23;;;;;;;24.92;3.08;;;;;;;;;;4938081;28;92536;-68
2023/01/11 08:14:37;;;;;;;21.23;3.28;;;;;;;;;;4936091;28;93086;-67
2023/01/11 08:16:21;;;;;;;22.67;3.38;;;;;;;;;;4939259;28;94171;-67
2023/01/11 08:18:52;;;;;;;25.73;3.45;;;;;;;;;;4933247;28;96048;-68
2023/01/11 08:21:20;;;;;;;33.85;4.50;;;;;;;;;;4939535;28;93754;-68
2023/01/11 08:23:46;;;;;;;26.83;4.43;;;;;;;;;;4936397;28;93401;-67
2023/01/11 08:26:15;;;;;;;27.73;3.30;;;;;;;;;;4936672;28;93416;-67
2023/01/11 08:28:43;;;;;;;22.35;3.67;;;;;;;;;;4938860;28;92791;-67
2023/01/11 08:31:09;;;;;;;27.55;4.05;;;;;;;;;;4937171;28;93291;-67
2023/01/11 08:33:35;;;;;;;24.13;3.60;;;;;;;;;;4940024;28;94039;-67
2023/01/11 08:36:06;;;;;;;20.38;3.33;;;;;;;;;;4944966;28;93400;-67
2023/01/11 08:38:32;;;;;;;32.42;3.80;;;;;;;;;;4936482;28;93546;-68
2023/01/11 08:40:59;;;;;;;23.15;3.50;;;;;;;;;;4932057;28;93387;-67
2023/01/11 08:43:27;;;;;;;24.42;3.42;;;;;;;;;;4933584;28;94890;-67
2023/01/11 08:45:53;;;;;;;20.55;3.75;;;;;;;;;;4936468;28;93956;-67
2023/01/11 08:48:20;;;;;;;19.35;3.15;;;;;;;;;;4932324;28;92574;-67
2023/01/11 08:50:46;;;;;;;26.05;3.63;;;;;;;;;;4935228;28;93239;-68
2023/01/11 08:53:12;;;;;;;40.47;4.63;;;;;;;;;;4935726;28;93961;-67
2023/01/11 08:55:40;;;;;;;34.33;4.55;;;;;;;;;;4936176;28;93942;-68
2023/01/11 08:58:06;;;;;;;28.92;4.25;;;;;;;;;;4937693;28;93256;-67
2023/01/11 09:00:33;;;;;;;31.88;4.20;;;;;;;;;;4935193;28;91776;-67
2023/01/11 09:02:59;;;;;;;30.23;4.47;;;;;;;;;;4932166;28;92622;-68
2023/01/11 09:05:26;;;;;;;32.45;5.50;;;;;;;;;;4936059;28;93408;-67
2023/01/11 09:07:55;;;;;;;27.17;4.10;;;;;;;;;;4934732;28;94891;-67
2023/01/11 09:10:25;;;;;;;34.67;5.25;;;;;;;;;;4936169;28;96986;-67
2023/01/11 09:12:52;;;;;;;28.45;4.82;;;;;;;;;;4947491;28;93283;-67
2023/01/11 09:15:19;;;;;;;28.50;4.20;;;;;;;;;;4941854;28;93062;-66
2023/01/11 09:17:45;;;;;;;41.25;6.40;;;;;;;;;;4946401;28;92990;-66
2023/01/11 09:20:12;;;;;;;36.55;5.78;;;;;;;;;;4958806;28;93775;-67
2023/01/11 09:22:39;;;;;;;32.67;4.00;;;;;;;;;;4952574;28;96061;-67
2023/01/11 09:25:05;;;;;;;31.83;4.38;;;;;;;;;;4955287;28;93257;-66
2023/01/11 09:27:32;;;;;;;24.73;3.92;;;;;;;;;;4953687;28;92463;-67
2023/01/11 09:30:01;;;;;;;23.52;3.70;;;;;;;;;;4954706;28;92507;-66
2023/01/11 09:32:27;;;;;;;28.73;3.65;;;;;;;;;;4953323;28;96029;-67
2023/01/11 09:34:56;;;;;;;25.48;3.80;;;;;;;;;;4946434;28;92679;-67
2023/01/11 09:37:23;;;;;;;27.50;3.58;;;;;;;;;;4953109;28;92395;-67
2023/01/11 09:39:50;;;;;;;32.45;5.13;;;;;;;;;;4954147;28;93713;-67
2023/01/11 09:42:25;;;;;;;24.30;4.30;;;;;;;;;;4956734;28;92446;-68
2023/01/11 09:44:55;;;;;;;31.85;5.00;;;;;;;;;;4950758;28;93841;-68
2023/01/11 09:47:24;;;;;;;19.08;3.72;;;;;;;;;;4935691;28;92463;-67
2023/01/11 09:49:54;;;;;;;23.30;4.97;;;;;;;;;;4934839;28;93619;-67
2023/01/11 09:52:28;;;;;;;20.55;4.25;;;;;;;;;;4948320;28;93315;-68
2023/01/11 09:54:57;;;;;;;26.75;3.63;;;;;;;;;;4953480;28;94057;-68
2023/01/11 09:57:29;;;;;;;35.03;4.38;;;;;;;;;;4953600;28;95413;-68
2023/01/11 10:00:13;;;;;;;27.90;4.50;;;;;;;;;;4954800;28;93206;-67
2023/01/11 10:02:46;;;;;;;26.88;3.92;;;;;;;;;;4947867;28;92510;-67
2023/01/11 10:05:22;;;;;;;38.20;4.40;;;;;;;;;;4933083;28;93925;-67
2023/01/11 10:08:23;;;;;;;26.02;4.53;;;;;;;;;;4929201;28;92469;-67
2023/01/11 10:11:09;;;;;;;;;;;;;;;;;;4940907;28;92831;-67
2023/01/11 10:14:21;;;;;;;36.15;5.75;;;;;;;;;;4934948;28;93029;-66
2023/01/11 10:17:19;;;;;;;24.25;4.20;;;;;;;;;;4950860;28;92979;-67
2023/01/11 10:20:11;;;;;;;20.30;3.60;;;;;;;;;;4954757;28;92476;-66
2023/01/11 10:22:42;;;;;;;25.77;3.42;;;;;;;;;;4942937;28;93497;-67
2023/01/11 10:25:09;;;;;;;27.90;3.70;;;;;;;;;;4932208;28;94939;-66
2023/01/11 10:27:39;;;;;;;34.90;5.40;;;;;;;;;;4950786;28;96914;-67
2023/01/11 10:30:32;;;;;;;26.00;4.15;;;;;;;;;;4950481;28;92588;-67
2023/01/11 10:33:37;;;;;;;28.35;4.22;;;;;;;;;;4934975;28;97466;-67
2023/01/11 10:36:49;;;;;;;25.83;3.72;;;;;;;;;;4928255;28;93644;-67
2023/01/11 10:39:45;;;;;;;24.63;3.83;;;;;;;;;;4934938;28;92487;-67
2023/01/11 10:42:10;;;;;;;19.52;3.58;;;;;;;;;;4943638;28;93672;-67
2023/01/11 10:44:56;;;;;;;24.67;4.07;;;;;;;;;;4931312;28;93352;-67
2023/01/11 10:47:26;;;;;;;20.15;4.03;;;;;;;;;;4939821;28;92480;-68
2023/01/11 10:50:01;;;;;;;21.30;3.78;;;;;;;;;;4934555;28;93174;-67
2023/01/11 10:52:34;;;;;;;20.23;4.40;;;;;;;;;;4933626;28;94876;-67
2023/01/11 10:55:11;;;;;;;20.27;4.05;;;;;;;;;;4940282;28;96893;-66
2023/01/11 10:57:37;;;;;;;27.58;4.20;;;;;;;;;;4937077;28;93264;-68
2023/01/11 11:00:34;;;;;;;18.45;3.72;;;;;;;;;;4919287;28;92402;-67
2023/01/11 11:03:19;;;;;;;17.63;3.85;;;;;;;;;;4933612;28;93330;-67
2023/01/11 11:05:48;;;;;;;22.05;4.35;;;;;;;;;;4943961;28;93764;-67
2023/01/11 11:08:25;;;;;;;20.08;3.60;;;;;;;;;;4940915;28;92673;-67
2023/01/11 11:11:24;;;;;;;17.85;3.72;;;;;;;;;;4949428;28;94244;-68
2023/01/11 11:13:55;;;;;;;20.10;3.80;;;;;;;;;;4896755;28;93477;-67
2023/01/11 11:16:21;;;;;;;19.90;3.92;;;;;;;;;;4899151;28;92495;-67
2023/01/11 11:18:48;;;;;;;19.25;3.85;;;;;;;;;;4894111;28;95826;-68
2023/01/11 11:21:35;;;;;;;23.25;3.50;;;;;;;;;;4895579;28;93126;-68
2023/01/11 11:24:07;;;;;;;25.10;4.18;;;;;;;;;;4883732;28;93157;-67
2023/01/11 11:26:37;;;;;;;24.55;4.25;;;;;;;;;;4881150;28;92655;-67
2023/01/11 11:29:05;;;;;;;23.67;3.90;;;;;;;;;;4896744;28;92745;-67
2023/01/11 11:31:33;;;;;;;18.02;3.75;;;;;;;;;;4895253;28;95666;-67
2023/01/11 11:34:06;;;;;;;21.10;3.75;;;;;;;;;;4894571;28;93915;-68
2023/01/11 11:36:42;;;;;;;27.90;4.43;;;;;;;;;;4896439;28;92230;-67
2023/01/11 11:39:10;;;;;;;18.95;3.95;;;;;;;;;;4882463;28;93530;-67
2023/01/11 11:42:05;;;;;;;24.88;4.25;;;;;;;;;;4880710;28;92570;-67
2023/01/11 11:44:32;;;;;;;32.30;4.72;;;;;;;;;;4878122;28;95922;-68
2023/01/11 11:47:04;;;;;;;24.95;4.70;;;;;;;;;;4897109;28;92854;-68
2023/01/11 11:49:35;;;;;;;17.23;3.65;;;;;;;;;;4922097;28;92527;-68
2023/01/11 11:52:02;;;;;;;23.85;3.90;;;;;;;;;;4937090;28;93459;-68
2023/01/11 11:54:40;;;;;;;19.98;4.07;;;;;;;;;;4932961;28;97513;-68
2023/01/11 11:57:12;;;;;;;21.65;3.95;;;;;;;;;;4929851;28;93182;-67
2023/01/11 11:59:43;;;;;;;32.85;5.10;;;;;;;;;;4945684;28;93340;-68
2023/01/11 12:02:09;;;;;;;;;;;;;;;;;;4948825;28;92762;-67
2023/01/11 12:04:46;;;;;;;33.95;5.28;;;;;;;;;;4941564;28;121249;-68
2023/01/11 12:07:17;;;;;;;30.02;4.18;;;;;;;;;;4956611;28;93802;-67
2023/01/11 12:09:56;;;;;;;22.27;3.47;;;;;;;;;;4941739;28;94943;-68
2023/01/11 12:12:22;;;;;;;29.83;4.55;;;;;;;;;;4954072;28;96957;-67
2023/01/11 12:15:05;;;;;;;27.10;4.18;;;;;;;;;;4955584;28;93437;-68
2023/01/11 12:17:32;;;;;;;26.05;3.60;;;;;;;;;;4918709;28;92763;-68
2023/01/11 12:19:58;;;;;;;23.67;3.72;;;;;;;;;;4941856;28;93240;-68
2023/01/11 12:22:26;;;;;;;25.92;3.88;;;;;;;;;;4952296;28;94225;-68
2023/01/11 12:25:11;;;;;;;22.08;5.10;;;;;;;;;;4954039;28;96209;-67
2023/01/11 12:27:43;;;;;;;30.40;4.20;;;;;;;;;;4936220;28;92881;-68
2023/01/11 12:30:15;;;;;;;26.52;4.15;;;;;;;;;;4947077;28;92428;-68
2023/01/11 12:33:04;;;;;;;23.35;3.58;;;;;;;;;;4947827;28;92390;-68
2023/01/11 12:35:37;;;;;;;36.60;5.35;;;;;;;;;;4934904;28;95924;-67
2023/01/11 12:38:03;;;;;;;23.80;4.15;;;;;;;;;;4936257;28;92570;-68
2023/01/11 12:40:42;;;;;;;25.08;4.63;;;;;;;;;;4946840;28;93159;-68
2023/01/11 12:43:20;;;;;;;21.15;4.65;;;;;;;;;;4935952;28;94172;-67
2023/01/11 12:46:06;;;;;;;25.70;4.10;;;;;;;;;;4952173;28;92615;-68
2023/01/11 12:48:35;;;;;;;20.95;4.05;;;;;;;;;;4922393;28;92583;-68
2023/01/11 12:51:09;;;;;;;35.90;5.15;;;;;;;;;;4934804;28;92665;-67
2023/01/11 12:53:51;;;;;;;22.50;4.18;;;;;;;;;;4935360;28;93631;-67
2023/01/11 12:56:32;;;;;;;29.08;4.03;;;;;;;;;;4945873;28;93785;-67
2023/01/11 12:59:01;;;;;;;24.73;4.00;;;;;;;;;;4950489;28;92732;-67
2023/01/11 13:01:34;;;;;;;18.05;3.53;;;;;;;;;;4932868;28;95666;-67
2023/01/11 13:04:04;;;;;;;25.98;4.63;;;;;;;;;;4921293;28;93924;-67
2023/01/11 13:06:42;;;;;;;25.05;4.40;;;;;;;;;;4935722;28;92582;-67
2023/01/11 13:09:19;;;;;;;18.95;3.92;;;;;;;;;;4937621;28;93248;-68
2023/01/11 13:11:59;;;;;;;19.45;3.35;;;;;;;;;;4955678;28;92508;-67
2023/01/11 13:14:36;;;;;;;23.55;4.32;;;;;;;;;;4939452;28;93920;-68
2023/01/11 13:17:20;;;;;;;16.98;3.50;;;;;;;;;;4935361;28;93404;-68
2023/01/11 13:19:49;;;;;;;23.35;4.43;;;;;;;;;;4936447;28;91657;-68
2023/01/11 13:22:18;;;;;;;23.83;4.05;;;;;;;;;;4938785;28;92839;-67
2023/01/11 13:24:46;;;;;;;27.65;4.55;;;;;;;;;;4928452;28;95174;-67
2023/01/11 13:27:15;;;;;;;23.70;3.85;;;;;;;;;;4914975;28;94862;-67
2023/01/11 13:29:43;;;;;;;17.10;3.45;;;;;;;;;;4937203;28;95567;-68
2023/01/11 13:32:14;;;;;;;21.73;4.70;;;;;;;;;;4955643;28;93771;-68
2023/01/11 13:34:43;;;;;;;26.67;3.85;;;;;;;;;;4945859;28;94205;-68
2023/01/11 13:37:21;;;;;;;20.55;3.38;;;;;;;;;;4934321;28;93430;-67
2023/01/11 13:39:54;;;;;;;16.33;3.78;;;;;;;;;;4938046;28;92704;-68
2023/01/11 13:42:29;;;;;;;22.98;4.22;;;;;;;;;;4939589;28;93397;-68
2023/01/11 13:45:02;;;;;;;27.27;4.35;;;;;;;;;;4955876;28;93789;-67
2023/01/11 13:47:32;;;;;;;25.63;4.00;;;;;;;;;;4947927;28;92526;-67
2023/01/11 13:50:01;;;;;;;29.90;4.15;;;;;;;;;;4933299;28;96020;-66
2023/01/11 13:52:30;;;;;;;26.75;3.75;;;;;;;;;;4935689;28;95291;-67
2023/01/11 13:55:01;;;;;;;22.83;4.53;;;;;;;;;;4956884;28;92458;-67
2023/01/11 13:57:39;;;;;;;26.83;3.72;;;;;;;;;;4932594;28;93531;-67
2023/01/11 14:00:17;;;;;;;21.10;3.50;;;;;;;;;;4935031;28;92842;-67
2023/01/11 14:02:53;;;;;;;23.10;3.55;;;;;;;;;;4932665;28;95221;-67
2023/01/11 14:05:21;;;;;;;26.65;4.40;;;;;;;;;;4919778;28;93778;-67
2023/01/11 14:07:59;;;;;;;27.75;4.35;;;;;;;;;;4955361;28;92445;-67
2023/01/11 14:10:37;;;;;;;31.35;4.70;;;;;;;;;;4945792;28;93169;-67
2023/01/11 14:13:03;;;;;;;19.70;4.03;;;;;;;;;;4955023;28;93797;-67
2023/01/11 14:15:33;;;;;;;36.05;4.78;;;;;;;;;;4948534;28;92688;-68
2023/01/11 14:18:17;;;;;;;22.75;3.75;;;;;;;;;;4936844;28;95147;-67
2023/01/11 14:20:47;;;;;;;36.75;4.50;;;;;;;;;;4933315;28;92625;-67
2023/01/11 14:23:18;;;;;;;44.08;6.68;;;;;;;;;;4953419;28;93444;-67
2023/01/11 14:26:03;;;;;;;21.25;4.35;;;;;;;;;;4939096;28;93820;-67
2023/01/11 14:28:34;;;;;;;27.30;3.97;;;;;;;;;;4938347;28;92510;-67
2023/01/11 14:31:07;;;;;;;34.33;4.93;;;;;;;;;;4939812;28;93172;-67
2023/01/11 14:33:33;;;;;;;34.42;4.30;;;;;;;;;;4940690;28;93614;-67
2023/01/11 14:36:02;;;;;;;25.10;3.95;;;;;;;;;;4943628;28;91790;-67
2023/01/11 14:38:37;;;;;;;29.40;4.93;;;;;;;;;;4952170;28;92541;-67
2023/01/11 14:41:03;;;;;;;29.75;4.22;;;;;;;;;;4953589;28;93841;-67
2023/01/11 14:43:48;;;;;;;31.17;5.13;;;;;;;;;;4929039;28;94852;-67
2023/01/11 14:46:31;;;;;;;31.67;4.50;;;;;;;;;;4937134;28;93815;-67
2023/01/11 14:49:21;;;;;;;30.42;4.75;;;;;;;;;;4950958;28;92424;-67
2023/01/11 14:52:20;;;;;;;31.95;4.80;;;;;;;;;;4852375;28;93771;-67
2023/01/11 14:55:06;;;;;;;29.10;4.45;;;;;;;;;;4853424;28;93750;-67
2023/01/11 14:57:39;;;;;;;37.22;4.95;;;;;;;;;;4871272;28;92570;-67
2023/01/11 15:00:17;;;;;;;34.83;4.00;;;;;;;;;;4862537;29;95767;-67
2023/01/11 15:02:44;;;;;;;33.35;4.72;;;;;;;;;;4865914;29;92755;-67
2023/01/11 15:05:34;;;;;;;28.45;4.20;;;;;;;;;;4871149;28;92631;-67
2023/01/11 15:08:08;;;;;;;35.70;4.82;;;;;;;;;;4861996;29;93920;-67
2023/01/11 15:10:35;;;;;;;27.90;4.22;;;;;;;;;;4874662;28;95015;-67
2023/01/11 15:13:11;;;;;;;32.17;4.85;;;;;;;;;;4880648;28;95733;-67
2023/01/11 15:18:24;;;;;;;20.65;3.60;;;;;;;;;;4862084;28;92765;-67
2023/01/11 15:20:52;;;;;;;35.08;4.15;;;;;;;;;;4881503;28;94509;-67